^^
Grace C. Lehan Memorial Weather Station Historical Data
Daily Summary for February 10, 2021 Units:  Metric    English   Both
Daily Weekly Monthly Yearly
  High: Low: Average:
Temperature: 23.6 °C 15.4 °C 19.9 °C
Dew Point: 18.1 °C 10.6 °C 14.1 °C
Humidity: 96% 51.3% 70%
Wind Speed: 13.5km/h 0km/h 3.7km/h
Wind Gust: 35.4km/h - -
Wind- - WNW
Pressure: 1016.5 hPa 1005 hPa -
Precipitation: 0 mm    
 
 
Tabular Data for February 10, 2021
Time Temperature Dew Point Pressure Wind Wind Speed Wind Gust Humidity Rainfall Rate (Hourly) solar
00:04 18.8 °C 18 °C 1005.6 hPa Calm     95% 0 mm 0 W/m2
00:09 18.8 °C 18.1 °C 1006 hPa Calm     95.3% 0 mm 0 W/m2
00:14 18.8 °C 18.1 °C 1006 hPa Calm     96% 0 mm 0 W/m2
00:19 18.8 °C 18.1 °C 1006 hPa Calm     96% 0 mm 0 W/m2
00:24 18.8 °C 18.1 °C 1006 hPa Calm     96% 0 mm 0 W/m2
00:29 18.7 °C 18.1 °C 1005.6 hPa Calm   1.6 km/h 96% 0 mm 0 W/m2
00:34 18.7 °C 18.1 °C 1005.6 hPa SW 0.2 km/h 3.2 km/h 96% 0 mm 0 W/m2
00:39 18.7 °C 17.9 °C 1005.6 hPa Calm   3.2 km/h 95.7% 0 mm 0 W/m2
00:44 18.6 °C 17.7 °C 1005.6 hPa Calm   3.2 km/h 95% 0 mm 0 W/m2
00:49 18.5 °C 17.7 °C 1005.6 hPa Calm   3.2 km/h 95% 0 mm 0 W/m2
00:54 18.4 °C 17.7 °C 1006 hPa Calm   3.2 km/h 95% 0 mm 0 W/m2
00:59 18.4 °C 17.6 °C 1006 hPa Calm   3.2 km/h 95% 0 mm 0 W/m2
01:04 18.4 °C 17.6 °C 1006 hPa Calm   3.2 km/h 95% 0 mm 0 W/m2
01:09 18.4 °C 17.7 °C 1005.6 hPa Calm     96% 0 mm 0 W/m2
01:14 18.3 °C 17.6 °C 1006 hPa Calm     95.4% 0 mm 0 W/m2
01:19 18.3 °C 17.5 °C 1005.6 hPa Calm     95% 0 mm 0 W/m2
01:24 18.3 °C 17.4 °C 1005.6 hPa Calm     95% 0 mm 0 W/m2
01:29 18.2 °C 17.4 °C 1006 hPa Calm     95% 0 mm 0 W/m2
01:34 18.2 °C 17.4 °C 1005.6 hPa Calm     95% 0 mm 0 W/m2
01:39 18.2 °C 17.3 °C 1005.6 hPa SW 0.2 km/h 3.2 km/h 95% 0 mm 0 W/m2
01:44 18.1 °C 17.3 °C 1005.6 hPa Calm   3.2 km/h 95% 0 mm 0 W/m2
01:49 18.1 °C 17.2 °C 1006 hPa SW 0.2 km/h 3.2 km/h 95% 0 mm 0 W/m2
01:54 18.1 °C 17.2 °C 1006 hPa Calm   3.2 km/h 95% 0 mm 0 W/m2
01:59 18.1 °C 17.2 °C 1005.3 hPa Calm   3.2 km/h 95% 0 mm 0 W/m2
02:04 18 °C 17.2 °C 1005 hPa SW 0.2 km/h 4.8 km/h 95% 0 mm 0 W/m2
02:09 18 °C 17.2 °C 1006 hPa SW 0.3 km/h 6.4 km/h 95% 0 mm 0 W/m2
02:14 18.1 °C 17.2 °C 1006 hPa Calm   6.4 km/h 95% 0 mm 0 W/m2
02:19 18.1 °C 17.2 °C 1006 hPa Calm   6.4 km/h 95% 0 mm 0 W/m2
02:24 18.1 °C 17.3 °C 1006 hPa Calm   6.4 km/h 95% 0 mm 0 W/m2
02:29 18.1 °C 17.3 °C 1006 hPa Calm   6.4 km/h 95% 0 mm 0 W/m2
02:34 18.1 °C 17.2 °C 1006 hPa Calm   6.4 km/h 95% 0 mm 0 W/m2
02:39 18.1 °C 17.2 °C 1005.6 hPa Calm     95% 0 mm 0 W/m2
02:44 18.1 °C 17.2 °C 1005.6 hPa Calm     95% 0 mm 0 W/m2
02:49 18.1 °C 17.2 °C 1006 hPa Calm     95% 0 mm 0 W/m2
02:54 18 °C 17.2 °C 1006 hPa Calm   1.6 km/h 95% 0 mm 0 W/m2
02:59 17.9 °C 17.2 °C 1005.6 hPa WSW 0.2 km/h 4.8 km/h 95% 0 mm 0 W/m2
03:04 17.9 °C 17.1 °C 1005.3 hPa WSW 0.2 km/h 4.8 km/h 95% 0 mm 0 W/m2
03:09 17.9 °C 17.1 °C 1005.3 hPa West 1 km/h 8 km/h 95% 0 mm 0 W/m2
03:14 17.8 °C 16.9 °C 1005.3 hPa WNW 0.6 km/h 8 km/h 94.1% 0 mm 0 W/m2
03:19 17.8 °C 16.8 °C 1005.3 hPa WNW 0.6 km/h 8 km/h 94% 0 mm 0 W/m2
03:24 17.9 °C 16.8 °C 1005.3 hPa WNW 1.8 km/h 8 km/h 93.3% 0 mm 0 W/m2
03:29 17.9 °C 16.7 °C 1005.3 hPa NW 0.5 km/h 8 km/h 92.7% 0 mm 0 W/m2
03:34 17.9 °C 16.6 °C 1005.3 hPa NW 0.5 km/h 8 km/h 92% 0 mm 0 W/m2
03:39 17.9 °C 16.4 °C 1005.6 hPa WNW 1.3 km/h 17.7 km/h 91.5% 0 mm 0 W/m2
03:44 17.8 °C 16.3 °C 1005.6 hPa WNW 3.5 km/h 17.7 km/h 90.8% 0 mm 0 W/m2
03:49 17.8 °C 16.1 °C 1005.6 hPa NW 2.9 km/h 17.7 km/h 89.8% 0 mm 0 W/m2
03:54 17.8 °C 16 °C 1005.6 hPa WNW 2.7 km/h 17.7 km/h 88.9% 0 mm 0 W/m2
03:59 17.9 °C 15.8 °C 1005.6 hPa NW 2.4 km/h 17.7 km/h 88% 0 mm 0 W/m2
04:09 17.9 °C 15.8 °C 1005.6 hPa WNW 0.2 km/h 3.2 km/h 87.2% 0 mm 0 W/m2
04:14 17.9 °C 15.7 °C 1005.6 hPa WNW 1.3 km/h 9.7 km/h 87% 0 mm 0 W/m2
04:19 17.9 °C 15.7 °C 1005.6 hPa WNW 0.2 km/h 9.7 km/h 87% 0 mm 0 W/m2
04:20 17.9 °C 15.7 °C 1005.6 hPa NW 4.5 km/h 9.7 km/h 87% 0 mm 0 W/m2
05:00 17.6 °C 15.2 °C 1005.6 hPa WNW 1.6 km/h 20.9 km/h 86% 0 mm 0 W/m2
05:30 17.3 °C 15.2 °C 1006 hPa NW 4.8 km/h 22.5 km/h 87% 0 mm 0 W/m2
06:00 17.2 °C 15 °C 1006.3 hPa NW 3.2 km/h 22.5 km/h 87% 0 mm 0 W/m2
06:30 17.1 °C 14.9 °C 1007 hPa NW 1.6 km/h 14.5 km/h 87% 0 mm 0 W/m2
07:00 16.9 °C 14.8 °C 1007.7 hPa Calm   3.2 km/h 87% 0 mm 6 W/m2
07:30 17.3 °C 14.9 °C 1008.4 hPa NW 1.6 km/h 9.7 km/h 86% 0 mm 15 W/m2
08:04 17.8 °C 15.1 °C 1008.4 hPa NNW 0.5 km/h 3.2 km/h 84% 0 mm 51 W/m2
08:09 17.9 °C 15.2 °C 1008.4 hPa NNW 0.6 km/h 4.8 km/h 84% 0 mm 58 W/m2
08:14 18 °C 15.3 °C 1008.4 hPa WNW 2.9 km/h 16.1 km/h 84% 0 mm 60 W/m2
08:19 18.1 °C 15.2 °C 1008.4 hPa Calm   16.1 km/h 83.1% 0 mm 63 W/m2
08:24 18.2 °C 15.3 °C 1008.4 hPa WNW 2.7 km/h 16.1 km/h 83% 0 mm 70 W/m2
08:29 18.3 °C 15.3 °C 1008.4 hPa NW 2.3 km/h 16.1 km/h 82.7% 0 mm 141 W/m2
08:34 18.4 °C 15.3 °C 1008.4 hPa NW 3.5 km/h 19.3 km/h 81.9% 0 mm 371 W/m2
08:39 18.6 °C 15.2 °C 1008.4 hPa WNW 0.8 km/h 19.3 km/h 81.1% 0 mm 410 W/m2
08:44 18.8 °C 15.7 °C 1008.4 hPa Calm   19.3 km/h 82% 0 mm 413 W/m2
08:49 19.2 °C 15.9 °C 1008.4 hPa NW 2.1 km/h 19.3 km/h 81.4% 0 mm 413 W/m2
08:54 19.6 °C 15.9 °C 1008.4 hPa NW 1.4 km/h 19.3 km/h 79.4% 0 mm 441 W/m2
08:59 19.9 °C 15.9 °C 1008.7 hPa NW 2.1 km/h 19.3 km/h 77.8% 0 mm 466 W/m2
09:04 20.4 °C 16 °C 1008.7 hPa NW 1.1 km/h 19.3 km/h 75.8% 0 mm 483 W/m2
09:09 20.8 °C 16.2 °C 1008.7 hPa WNW 5.3 km/h 19.3 km/h 75.1% 0 mm 503 W/m2
09:14 21 °C 15.9 °C 1008.7 hPa NW 7.2 km/h 20.9 km/h 72.9% 0 mm 534 W/m2
09:19 21.1 °C 15.6 °C 1008.7 hPa WNW 5.5 km/h 20.9 km/h 70.8% 0 mm 540 W/m2
09:24 21.1 °C 15.5 °C 1008.7 hPa WNW 6.9 km/h 24.1 km/h 70.3% 0 mm 538 W/m2
09:29 21.3 °C 15.9 °C 1008.7 hPa NW 4.2 km/h 24.1 km/h 71.2% 0 mm 543 W/m2
09:34 21.7 °C 15.9 °C 1008.7 hPa WNW 5 km/h 24.1 km/h 69.8% 0 mm 555 W/m2
09:39 21.9 °C 15.6 °C 1008.7 hPa NW 5.6 km/h 22.5 km/h 67.5% 0 mm 578 W/m2
09:44 22 °C 15.8 °C 1008.7 hPa NNW 4 km/h 22.5 km/h 67.9% 0 mm 585 W/m2
09:49 22.2 °C 15.8 °C 1008.7 hPa NW 4.7 km/h 22.5 km/h 67% 0 mm 612 W/m2
09:54 22.4 °C 16.1 °C 1009 hPa NW 2.7 km/h 22.5 km/h 67.7% 0 mm 652 W/m2
09:59 22.6 °C 15.8 °C 1009 hPa WNW 4.8 km/h 22.5 km/h 65.4% 0 mm 675 W/m2
10:04 22.7 °C 16.3 °C 1009 hPa NNW 1.4 km/h 22.5 km/h 66.9% 0 mm 675 W/m2
10:09 22.9 °C 16.4 °C 1009 hPa WNW 3.1 km/h 14.5 km/h 66.6% 0 mm 677 W/m2
10:14 23.2 °C 16.3 °C 1009 hPa NW 3.1 km/h 16.1 km/h 65.1% 0 mm 677 W/m2
10:19 23.4 °C 16.3 °C 1009 hPa WNW 3.1 km/h 19.3 km/h 64.2% 0 mm 744 W/m2
10:24 23.6 °C 15.9 °C 1009 hPa WNW 4.3 km/h 19.3 km/h 62.4% 0 mm 744 W/m2
10:29 23.5 °C 15.9 °C 1009 hPa NW 5 km/h 19.3 km/h 62.3% 0 mm 717 W/m2
10:34 23.4 °C 15.6 °C 1009 hPa WNW 4.8 km/h 19.3 km/h 61.1% 0 mm 654 W/m2
10:39 23.3 °C 15.6 °C 1009 hPa WNW 6.8 km/h 19.3 km/h 61.9% 0 mm 654 W/m2
10:44 22.9 °C 15.4 °C 1009 hPa NW 6 km/h 22.5 km/h 62.5% 0 mm 281 W/m2
10:49 22.6 °C 15 °C 1009 hPa NW 6.6 km/h 22.5 km/h 62% 0 mm 281 W/m2
10:54 22.3 °C 15.1 °C 1009 hPa NW 6.6 km/h 22.5 km/h 63.5% 0 mm 793 W/m2
10:59 22.3 °C 15.1 °C 1009 hPa NW 4 km/h 22.5 km/h 63.5% 0 mm 462 W/m2
11:04 22.2 °C 14.9 °C 1009 hPa WNW 9.7 km/h 24.1 km/h 63.2% 0 mm 278 W/m2
11:09 22.2 °C 15.4 °C 1009 hPa WNW 6.3 km/h 24.1 km/h 65.5% 0 mm 932 W/m2
11:14 22.4 °C 15.4 °C 1009 hPa NW 5.8 km/h 24.1 km/h 64.5% 0 mm 865 W/m2
11:19 22.6 °C 15.2 °C 1009 hPa NW 6.3 km/h 24.1 km/h 63.2% 0 mm 946 W/m2
11:24 22.6 °C 15.5 °C 1009 hPa NW 5 km/h 24.1 km/h 64.1% 0 mm 946 W/m2
11:29 22.5 °C 15.2 °C 1009.4 hPa WNW 3.4 km/h 24.1 km/h 63.3% 0 mm 118 W/m2
11:34 22.4 °C 15.1 °C 1009 hPa NW 9.2 km/h 24.1 km/h 63.5% 0 mm 221 W/m2
11:39 22.2 °C 14.6 °C 1009 hPa NW 9.2 km/h 24.1 km/h 62.2% 0 mm 216 W/m2
11:44 21.8 °C 14.8 °C 1009 hPa WNW 7.7 km/h 24.1 km/h 64.3% 0 mm 833 W/m2
11:49 21.8 °C 14.9 °C 1009 hPa WNW 7.9 km/h 24.1 km/h 64.8% 0 mm 833 W/m2
11:54 22.1 °C 15.3 °C 1009 hPa WNW 5.8 km/h 24.1 km/h 65.5% 0 mm 269 W/m2
11:59 22.5 °C 15.2 °C 1009 hPa NW 6.9 km/h 24.1 km/h 63.6% 0 mm 250 W/m2
12:04 22.8 °C 14.9 °C 1009 hPa NNW 2.9 km/h 4.8 km/h 61% 0 mm 127 W/m2
12:09 22.7 °C 14.9 °C 1009 hPa WNW 11.1 km/h 25.7 km/h 61.3% 0 mm 158 W/m2
12:14 22.6 °C 14.9 °C 1009 hPa WNW 8.5 km/h 27.4 km/h 62% 0 mm 190 W/m2
12:19 22.6 °C 14.8 °C 1009 hPa WNW 8 km/h 27.4 km/h 61.3% 0 mm 206 W/m2
12:23 22.6 °C 14.9 °C 1009.4 hPa WNW 10.1 km/h 27.4 km/h 62% 0 mm 211 W/m2
12:29 22.4 °C 14.6 °C 1009.4 hPa WNW 9.2 km/h 27.4 km/h 61.5% 0 mm 237 W/m2
12:34 22.4 °C 15.1 °C 1009.4 hPa WNW 6.4 km/h 27.4 km/h 63.3% 0 mm 241 W/m2
12:39 22.4 °C 14.8 °C 1009.4 hPa WNW 3.4 km/h 24.1 km/h 61.8% 0 mm 213 W/m2
12:44 22.5 °C 14.6 °C 1009.4 hPa NW 8.4 km/h 25.7 km/h 61% 0 mm 322 W/m2
12:49 22.4 °C 14.3 °C 1009.4 hPa NW 3.4 km/h 25.7 km/h 60% 0 mm 322 W/m2
12:54 22.4 °C 14.4 °C 1009.4 hPa West 6 km/h 30.6 km/h 60.5% 0 mm 230 W/m2
12:59 22.4 °C 14.4 °C 1009.4 hPa NW 4.5 km/h 30.6 km/h 60.8% 0 mm 605 W/m2
13:04 22.5 °C 14.4 °C 1009.4 hPa WNW 8.5 km/h 30.6 km/h 60.1% 0 mm 279 W/m2
13:09 22.5 °C 14.1 °C 1009.7 hPa NW 8.9 km/h 20.9 km/h 59.1% 0 mm 255 W/m2
13:14 22.4 °C 13.9 °C 1009.7 hPa WNW 8.2 km/h 22.5 km/h 58.8% 0 mm 162 W/m2
13:19 22.2 °C 13.8 °C 1009.7 hPa WNW 11.6 km/h 29 km/h 58.9% 0 mm 276 W/m2
13:24 22.1 °C 13.4 °C 1009.7 hPa WNW 13.5 km/h 29 km/h 58% 0 mm 200 W/m2
13:29 21.9 °C 13.6 °C 1009.4 hPa West 11.3 km/h 29 km/h 58.9% 0 mm 165 W/m2
13:34 22.1 °C 13.7 °C 1009.4 hPa WNW 9.8 km/h 29 km/h 59.3% 0 mm 132 W/m2
13:39 22.2 °C 13.4 °C 1009.7 hPa NW 9.5 km/h 33.8 km/h 57.6% 0 mm 114 W/m2
13:44 22.3 °C 13.6 °C 1009.7 hPa West 7.6 km/h 33.8 km/h 57.6% 0 mm 79 W/m2
13:49 22.4 °C 13.9 °C 1009.7 hPa WNW 4.2 km/h 33.8 km/h 58.3% 0 mm 118 W/m2
13:54 22.7 °C 14.2 °C 1009.7 hPa NW 6.4 km/h 33.8 km/h 58.9% 0 mm 118 W/m2
13:59 22.8 °C 13.8 °C 1009.7 hPa WNW 7.2 km/h 33.8 km/h 57.1% 0 mm 209 W/m2
14:04 22.9 °C 14 °C 1009.7 hPa NW 7.1 km/h 33.8 km/h 57% 0 mm 214 W/m2
14:09 23.1 °C 14.1 °C 1009.7 hPa NW 6.9 km/h 22.5 km/h 56.9% 0 mm 272 W/m2
14:14 23.2 °C 14.3 °C 1009.7 hPa NNW 4.8 km/h 22.5 km/h 57.5% 0 mm 327 W/m2
14:19 23.2 °C 14.2 °C 1009.7 hPa WNW 6.8 km/h 22.5 km/h 57% 0 mm 773 W/m2
14:24 23.2 °C 14.2 °C 1009.7 hPa WNW 7.7 km/h 29 km/h 57% 0 mm 773 W/m2
14:29 23.2 °C 14 °C 1009.7 hPa WNW 11.4 km/h 29 km/h 56.4% 0 mm 768 W/m2
14:34 23 °C 13.7 °C 1009.7 hPa NW 6.8 km/h 29 km/h 55.6% 0 mm 761 W/m2
14:39 23 °C 13.9 °C 1009.7 hPa NW 8.2 km/h 22.5 km/h 56.5% 0 mm 758 W/m2
14:44 23 °C 13.6 °C 1009.7 hPa NW 10.9 km/h 32.2 km/h 55.3% 0 mm 754 W/m2
14:49 23.1 °C 13.9 °C 1009.7 hPa West 8 km/h 32.2 km/h 56.5% 0 mm 749 W/m2
14:54 23.2 °C 14.2 °C 1009.7 hPa WNW 8.2 km/h 32.2 km/h 56.8% 0 mm 742 W/m2
14:59 23.2 °C 14.1 °C 1009.7 hPa NW 11.1 km/h 32.2 km/h 56.2% 0 mm 733 W/m2
15:04 23.3 °C 13.9 °C 1009.7 hPa NW 7.2 km/h 32.2 km/h 55.8% 0 mm 726 W/m2
15:09 23.2 °C 14.1 °C 1009.7 hPa NW 8.5 km/h 24.1 km/h 56.2% 0 mm 721 W/m2
15:14 23.2 °C 13.9 °C 1009.7 hPa WNW 7.6 km/h 25.7 km/h 55.6% 0 mm 735 W/m2
15:19 23.2 °C 13.7 °C 1009.7 hPa WNW 9 km/h 25.7 km/h 55.2% 0 mm 735 W/m2
15:24 22.9 °C 13.5 °C 1010 hPa WNW 10.6 km/h 25.7 km/h 55.5% 0 mm 134 W/m2
15:29 22.6 °C 13.6 °C 1010 hPa NW 4.5 km/h 25.7 km/h 56.7% 0 mm 765 W/m2
15:34 22.6 °C 13.8 °C 1010 hPa WNW 2.9 km/h 25.7 km/h 57.7% 0 mm 765 W/m2
15:39 22.7 °C 13.8 °C 1010 hPa WNW 6.6 km/h 20.9 km/h 57.2% 0 mm 171 W/m2
15:44 22.6 °C 13.7 °C 1009.7 hPa West 8 km/h 20.9 km/h 57.2% 0 mm 250 W/m2
15:49 22.4 °C 13.8 °C 1010 hPa WNW 9.5 km/h 22.5 km/h 58.2% 0 mm 638 W/m2
15:54 22.6 °C 13.8 °C 1010 hPa WNW 11.4 km/h 22.5 km/h 57.8% 0 mm 612 W/m2
15:59 22.6 °C 13.6 °C 1010 hPa WNW 8.5 km/h 24.1 km/h 57% 0 mm 596 W/m2
16:00 22.5 °C 13.6 °C 1010 hPa NW 6.4 km/h 24.1 km/h 57% 0 mm 37 W/m2
16:09 22.6 °C 13.6 °C 1010 hPa WNW 8.5 km/h 24.1 km/h 56.8% 0 mm 42 W/m2
16:14 22.6 °C 13.2 °C 1010 hPa NW 7.9 km/h 24.1 km/h 55.3% 0 mm 35 W/m2
16:19 22.6 °C 13.3 °C 1010 hPa WNW 13.4 km/h 25.7 km/h 55.5% 0 mm 33 W/m2
16:24 22.6 °C 12.8 °C 1010 hPa WNW 11.4 km/h 25.7 km/h 53.9% 0 mm 35 W/m2
16:29 22.6 °C 12.8 °C 1010 hPa WNW 12.7 km/h 35.4 km/h 54% 0 mm 42 W/m2
16:34 22.6 °C 12.7 °C 1010.4 hPa WNW 11.1 km/h 35.4 km/h 53.4% 0 mm 46 W/m2
16:39 22.6 °C 12.7 °C 1010.4 hPa WNW 9.8 km/h 30.6 km/h 53.5% 0 mm 39 W/m2
16:44 22.6 °C 12.6 °C 1010.4 hPa NW 6.9 km/h 30.6 km/h 53.2% 0 mm 39 W/m2
16:49 22.5 °C 12.5 °C 1010.4 hPa NW 7.2 km/h 30.6 km/h 53.1% 0 mm 32 W/m2
16:54 22.5 °C 12.2 °C 1010.4 hPa NW 8.2 km/h 30.6 km/h 52.3% 0 mm 35 W/m2
16:59 22.4 °C 12.2 °C 1010.7 hPa NW 7.6 km/h 30.6 km/h 52.4% 0 mm 35 W/m2
17:04 22.4 °C 11.8 °C 1010.7 hPa NW 9.5 km/h 30.6 km/h 51.3% 0 mm 44 W/m2
17:09 22.3 °C 12.3 °C 1010.7 hPa WNW 6.3 km/h 24.1 km/h 52.8% 0 mm 44 W/m2
17:14 22.4 °C 12.4 °C 1010.7 hPa WNW 8.4 km/h 24.1 km/h 53.2% 0 mm 32 W/m2
17:19 22.3 °C 12.5 °C 1010.7 hPa WNW 1.9 km/h 24.1 km/h 53.6% 0 mm 26 W/m2
17:24 22.3 °C 12.8 °C 1011.1 hPa WNW 3.5 km/h 24.1 km/h 54.7% 0 mm 26 W/m2
17:29 22.3 °C 12.6 °C 1011.1 hPa West 4.8 km/h 24.1 km/h 53.8% 0 mm 25 W/m2
17:34 22.2 °C 12.4 °C 1011.1 hPa NW 6.8 km/h 24.1 km/h 53.8% 0 mm 25 W/m2
17:39 22.1 °C 12.3 °C 1011.1 hPa NW 3.9 km/h 19.3 km/h 53.9% 0 mm 23 W/m2
17:44 22.1 °C 12.5 °C 1011.4 hPa WNW 7.1 km/h 25.7 km/h 54.5% 0 mm 23 W/m2
17:49 21.9 °C 12.2 °C 1011.4 hPa NW 7.1 km/h 25.7 km/h 53.7% 0 mm 23 W/m2
17:54 21.8 °C 11.8 °C 1011.4 hPa NW 8.9 km/h 25.7 km/h 53.1% 0 mm 21 W/m2
17:59 21.7 °C 12 °C 1011.7 hPa WNW 5.5 km/h 25.7 km/h 53.9% 0 mm 21 W/m2
18:04 21.6 °C 12.1 °C 1011.7 hPa NW 3.5 km/h 25.7 km/h 54.7% 0 mm 19 W/m2
18:09 21.5 °C 12.2 °C 1011.7 hPa NW 5.5 km/h 20.9 km/h 55.2% 0 mm 19 W/m2
18:14 21.4 °C 12.2 °C 1011.7 hPa West 4.3 km/h 20.9 km/h 55.7% 0 mm 18 W/m2
18:19 21.3 °C 12.3 °C 1011.7 hPa WNW 6.1 km/h 20.9 km/h 56.6% 0 mm 16 W/m2
18:24 21.1 °C 12.3 °C 1011.7 hPa WNW 4 km/h 20.9 km/h 57% 0 mm 16 W/m2
18:29 21 °C 12.1 °C 1011.7 hPa WNW 3.9 km/h 20.9 km/h 56.8% 0 mm 14 W/m2
18:34 20.8 °C 12.1 °C 1011.7 hPa WNW 2.9 km/h 20.9 km/h 57.3% 0 mm 14 W/m2
18:39 20.8 °C 12.2 °C 1011.7 hPa WNW 0.8 km/h 11.3 km/h 57.9% 0 mm 12 W/m2
18:44 20.7 °C 12.3 °C 1011.7 hPa Calm   11.3 km/h 58.9% 0 mm 11 W/m2
18:49 20.5 °C 12.2 °C 1012.1 hPa West 1.6 km/h 11.3 km/h 59% 0 mm 9 W/m2
18:54 20.3 °C 12.1 °C 1012.1 hPa WNW 0.5 km/h 11.3 km/h 59% 0 mm 7 W/m2
18:59 20.2 °C 12.2 °C 1012.1 hPa West 1.4 km/h 11.3 km/h 60.1% 0 mm 5 W/m2
19:04 20.1 °C 12.1 °C 1012.1 hPa West 0.3 km/h 11.3 km/h 60% 0 mm 0 W/m2
19:09 19.8 °C 12.1 °C 1012.1 hPa West 1.3 km/h 8 km/h 60.8% 0 mm 0 W/m2
19:14 19.7 °C 11.9 °C 1012.4 hPa West 1.1 km/h 8 km/h 61% 0 mm 0 W/m2
19:19 19.6 °C 11.8 °C 1012.4 hPa West 1.1 km/h 8 km/h 61% 0 mm 0 W/m2
19:24 19.4 °C 11.7 °C 1012.4 hPa West 1 km/h 9.7 km/h 61% 0 mm 0 W/m2
19:29 19.2 °C 11.6 °C 1012.8 hPa West 2.1 km/h 11.3 km/h 61.1% 0 mm 0 W/m2
19:34 19.1 °C 11.4 °C 1012.8 hPa West 1.3 km/h 11.3 km/h 61.3% 0 mm 0 W/m2
19:39 18.9 °C 11.3 °C 1012.8 hPa West 0.5 km/h 8 km/h 61.3% 0 mm 0 W/m2
19:44 18.8 °C 11.3 °C 1013.1 hPa West 0.5 km/h 8 km/h 61.7% 0 mm 0 W/m2
19:49 18.8 °C 11.2 °C 1013.1 hPa West 0.3 km/h 8 km/h 61.5% 0 mm 0 W/m2
19:54 18.7 °C 11.3 °C 1013.1 hPa Calm   8 km/h 62.2% 0 mm 0 W/m2
19:59 18.6 °C 11.5 °C 1013.1 hPa Calm   8 km/h 63.5% 0 mm 0 W/m2
20:00 18.5 °C 11.6 °C 1013.1 hPa Calm   8 km/h 64% 0 mm 0 W/m2
20:09 18.3 °C 11.2 °C 1013.4 hPa Calm   3.2 km/h 63.5% 0 mm 0 W/m2
20:14 18.1 °C 11.4 °C 1013.4 hPa West 0.6 km/h 6.4 km/h 64.7% 0 mm 0 W/m2
20:19 18 °C 11.4 °C 1013.4 hPa West 0.3 km/h 6.4 km/h 65.7% 0 mm 0 W/m2
20:24 17.8 °C 11.4 °C 1013.8 hPa Calm   6.4 km/h 66.2% 0 mm 0 W/m2
20:29 17.7 °C 11.5 °C 1013.8 hPa West 0.5 km/h 6.4 km/h 67% 0 mm 0 W/m2
20:34 17.6 °C 11.3 °C 1013.8 hPa West 1.4 km/h 6.4 km/h 67% 0 mm 0 W/m2
20:39 17.4 °C 11.4 °C 1013.8 hPa West 0.8 km/h 8 km/h 67.8% 0 mm 0 W/m2
20:44 17.3 °C 11.3 °C 1013.8 hPa West 0.5 km/h 8 km/h 68.1% 0 mm 0 W/m2
20:49 17.2 °C 11.4 °C 1014.1 hPa West 0.2 km/h 8 km/h 69% 0 mm 0 W/m2
20:54 17.1 °C 11.3 °C 1014.1 hPa Calm   8 km/h 69.2% 0 mm 0 W/m2
20:59 16.9 °C 11.4 °C 1014.1 hPa West 1.6 km/h 8 km/h 70% 0 mm 0 W/m2
21:04 16.8 °C 11.3 °C 1014.1 hPa West 0.3 km/h 8 km/h 70.1% 0 mm 0 W/m2
21:09 16.7 °C 11.4 °C 1014.1 hPa West 1 km/h 4.8 km/h 71.1% 0 mm 0 W/m2
21:14 16.6 °C 11.5 °C 1014.1 hPa West 1 km/h 4.8 km/h 72% 0 mm 0 W/m2
21:19 16.4 °C 11.4 °C 1014.4 hPa West 2.3 km/h 11.3 km/h 72% 0 mm 0 W/m2
21:24 16.3 °C 11.3 °C 1014.4 hPa West 3.7 km/h 17.7 km/h 72% 0 mm 0 W/m2
21:29 16.3 °C 11.1 °C 1014.4 hPa West 2.9 km/h 17.7 km/h 71.3% 0 mm 0 W/m2
21:34 16.3 °C 11 °C 1014.4 hPa West 4.2 km/h 17.7 km/h 70.7% 0 mm 0 W/m2
21:39 16.4 °C 10.9 °C 1014.4 hPa West 3.2 km/h 12.9 km/h 70% 0 mm 0 W/m2
21:44 16.5 °C 10.8 °C 1014.4 hPa West 3.7 km/h 12.9 km/h 69.1% 0 mm 0 W/m2
21:49 16.7 °C 10.8 °C 1014.4 hPa West 1.3 km/h 14.5 km/h 68.6% 0 mm 0 W/m2
21:54 16.7 °C 10.8 °C 1014.8 hPa West 1.8 km/h 14.5 km/h 68% 0 mm 0 W/m2
21:59 16.8 °C 10.8 °C 1014.8 hPa WNW 1.8 km/h 16.1 km/h 67.8% 0 mm 0 W/m2
22:04 16.8 °C 10.7 °C 1014.8 hPa West 4.8 km/h 16.1 km/h 67.1% 0 mm 0 W/m2
22:09 16.8 °C 10.7 °C 1015.1 hPa WNW 3.1 km/h 16.1 km/h 67% 0 mm 0 W/m2
22:14 16.8 °C 10.7 °C 1015.1 hPa West 2.1 km/h 16.1 km/h 67.2% 0 mm 0 W/m2
22:19 16.8 °C 10.7 °C 1015.1 hPa West 1.8 km/h 16.1 km/h 67.1% 0 mm 0 W/m2
22:24 16.8 °C 10.8 °C 1015.5 hPa West 1 km/h 16.1 km/h 68% 0 mm 0 W/m2
22:29 16.7 °C 10.8 °C 1015.5 hPa West 1.3 km/h 16.1 km/h 68.1% 0 mm 0 W/m2
22:34 16.6 °C 10.7 °C 1015.5 hPa WNW 5 km/h 19.3 km/h 68.5% 0 mm 0 W/m2
22:39 16.5 °C 10.6 °C 1015.5 hPa WNW 2.4 km/h 19.3 km/h 68% 0 mm 0 W/m2
22:44 16.4 °C 10.6 °C 1015.5 hPa West 3.4 km/h 19.3 km/h 68% 0 mm 0 W/m2
22:49 16.4 °C 10.7 °C 1015.5 hPa West 1.4 km/h 19.3 km/h 68.6% 0 mm 0 W/m2
22:54 16.4 °C 10.7 °C 1015.8 hPa West 0.3 km/h 19.3 km/h 69% 0 mm 0 W/m2
22:59 16.4 °C 10.7 °C 1015.8 hPa WSW 2.1 km/h 19.3 km/h 69% 0 mm 0 W/m2
23:04 16.3 °C 10.7 °C 1015.8 hPa West 2.1 km/h 19.3 km/h 69% 0 mm 0 W/m2
23:09 16.3 °C 10.7 °C 1015.8 hPa West 2.6 km/h 9.7 km/h 69.2% 0 mm 0 W/m2
23:14 16.3 °C 10.8 °C 1015.8 hPa West 1.9 km/h 9.7 km/h 70% 0 mm 0 W/m2
23:19 16.2 °C 10.9 °C 1015.8 hPa West 0.8 km/h 9.7 km/h 70.6% 0 mm 0 W/m2
23:24 16.1 °C 10.8 °C 1015.8 hPa West 0.8 km/h 9.7 km/h 71% 0 mm 0 W/m2
23:29 16 °C 10.7 °C 1016.1 hPa West 0.8 km/h 9.7 km/h 71% 0 mm 0 W/m2
23:34 15.9 °C 10.8 °C 1016.1 hPa West 0.8 km/h 9.7 km/h 71.6% 0 mm 0 W/m2
23:39 15.8 °C 10.8 °C 1016.1 hPa West 0.2 km/h 6.4 km/h 72% 0 mm 0 W/m2
23:44 15.7 °C 10.7 °C 1016.1 hPa Calm   6.4 km/h 72.3% 0 mm 0 W/m2
23:49 15.6 °C 10.8 °C 1016.5 hPa West 0.2 km/h 6.4 km/h 73% 0 mm 0 W/m2
23:54 15.5 °C 10.7 °C 1016.5 hPa West 0.5 km/h 8 km/h 73% 0 mm 0 W/m2
23:59 15.4 °C 10.8 °C 1016.5 hPa West 0.2 km/h 8 km/h 73.8% 0 mm 0 W/m2
Hartford County Weather
Compliments of Weather Underground - 4 mb